createdAt,value
2019-01-05T00:03:00.989Z,4.30
2019-01-05T00:08:30.609Z,3.93
2019-01-05T00:14:05.444Z,4.37
2019-01-05T00:19:27.840Z,4.40
2019-01-05T00:24:46.650Z,4.53
2019-01-05T00:30:11.401Z,4.60
2019-01-05T00:35:41.961Z,3.73
2019-01-05T00:41:05.260Z,4.20
2019-01-05T00:46:27.301Z,3.50
2019-01-05T00:51:51.715Z,2.93
2019-01-05T00:57:30.308Z,2.90
2019-01-05T01:03:01.408Z,3.00
2019-01-05T01:08:23.975Z,3.93
2019-01-05T01:13:58.145Z,3.30
2019-01-05T01:19:23.558Z,3.47
2019-01-05T01:24:46.311Z,3.43
2019-01-05T01:30:23.313Z,4.60
2019-01-05T01:35:48.540Z,3.77
2019-01-05T01:41:09.878Z,3.70
2019-01-05T01:46:32.955Z,3.60
2019-01-05T01:51:58.280Z,4.07
2019-01-05T01:57:25.134Z,4.33
2019-01-05T02:02:46.382Z,4.43
2019-01-05T02:08:11.081Z,3.93
2019-01-05T02:13:54.844Z,4.17
2019-01-05T02:19:23.648Z,5.03
2019-01-05T02:25:22.589Z,6.37
2019-01-05T02:31:49.968Z,4.87
2019-01-05T02:37:43.153Z,4.80
2019-01-05T02:43:42.361Z,5.03
2019-01-05T02:49:44.873Z,5.37
2019-01-05T02:55:49.204Z,3.10
2019-01-05T03:02:09.632Z,3.30
2019-01-05T03:07:54.527Z,3.90
2019-01-05T03:13:55.195Z,3.60
2019-01-05T03:19:46.011Z,3.07
2019-01-05T03:25:50.342Z,2.20
2019-01-05T03:32:02.575Z,3.77
2019-01-05T03:37:59.234Z,2.53
2019-01-05T03:43:50.052Z,2.73
2019-01-05T03:49:52.960Z,2.60
2019-01-05T03:55:34.473Z,2.10
2019-01-05T04:01:49.681Z,3.10
2019-01-05T04:07:56.473Z,2.50
2019-01-05T04:14:06.242Z,2.70
2019-01-05T04:20:26.777Z,3.00
2019-01-05T04:26:15.336Z,3.80
2019-01-05T04:31:59.413Z,3.67
2019-01-05T04:37:54.236Z,4.43
2019-01-05T04:43:59.576Z,3.17
2019-01-05T04:50:24.843Z,3.50
2019-01-05T04:56:44.128Z,2.97
2019-01-05T05:02:36.342Z,3.20
2019-01-05T05:08:32.331Z,3.20
2019-01-05T05:14:48.345Z,2.77
2019-01-05T05:20:50.962Z,3.23
2019-01-05T05:26:33.626Z,4.70
2019-01-05T05:32:36.812Z,3.50
2019-01-05T05:38:37.261Z,4.13
2019-01-05T05:44:44.467Z,3.53
2019-01-05T05:50:43.282Z,3.30
2019-01-05T05:56:42.917Z,3.80
2019-01-05T06:02:22.885Z,4.00
2019-01-05T06:08:26.001Z,3.60
2019-01-05T06:14:09.047Z,4.10
2019-01-05T06:20:14.685Z,4.90
2019-01-05T06:26:25.719Z,3.93
2019-01-05T06:32:36.647Z,4.27
2019-01-05T06:38:39.380Z,4.17
2019-01-05T06:44:59.349Z,4.03
2019-01-05T06:50:49.795Z,4.07
2019-01-05T06:56:38.849Z,4.20
2019-01-05T07:02:32.124Z,4.50
2019-01-05T07:09:01.493Z,4.93
2019-01-05T07:15:16.745Z,5.23
2019-01-05T07:21:33.270Z,3.73
2019-01-05T07:27:33.825Z,4.70
2019-01-05T07:33:31.423Z,5.13
2019-01-05T07:39:31.144Z,3.77
2019-01-05T07:45:14.706Z,4.80
2019-01-05T07:51:25.398Z,4.13
2019-01-05T07:57:46.031Z,4.17
2019-01-05T08:03:53.257Z,4.63
2019-01-05T08:09:47.641Z,5.22
2019-01-05T08:16:04.284Z,4.13
2019-01-05T08:22:14.666Z,2.90
2019-01-05T08:28:16.597Z,5.93
2019-01-05T08:34:26.929Z,3.83
2019-01-05T08:40:26.569Z,4.80
2019-01-05T08:46:28.158Z,4.10
2019-01-05T08:52:15.824Z,3.90
2019-01-05T08:58:28.354Z,3.60
2019-01-05T09:04:35.089Z,4.70
2019-01-05T09:10:30.687Z,4.43
2019-01-05T09:16:26.543Z,4.17
2019-01-05T09:22:16.321Z,4.73
2019-01-05T09:28:16.064Z,6.53
2019-01-05T09:34:30.956Z,4.27
2019-01-05T09:40:25.159Z,4.47
2019-01-05T09:46:34.209Z,5.80
2019-01-05T09:52:29.956Z,5.40
2019-01-05T09:58:36.758Z,5.80
2019-01-05T10:04:46.416Z,5.30
2019-01-05T10:10:33.422Z,5.53
2019-01-05T10:16:40.470Z,4.50
2019-01-05T10:22:44.706Z,3.67
2019-01-05T10:28:34.512Z,4.50
2019-01-05T10:34:45.774Z,3.27
2019-01-05T10:40:47.083Z,4.77
2019-01-05T10:46:40.369Z,3.80
2019-01-05T10:52:48.608Z,4.90
2019-01-05T10:58:52.228Z,3.53
2019-01-05T11:04:57.090Z,4.03
2019-01-05T11:10:59.580Z,4.97
2019-01-05T11:17:18.986Z,3.93
2019-01-05T11:23:20.767Z,3.93
2019-01-05T11:29:26.501Z,2.93
2019-01-05T11:35:34.469Z,5.60
2019-01-05T11:41:27.509Z,3.60
2019-01-05T11:47:41.792Z,3.83
2019-01-05T11:53:28.002Z,5.00
2019-01-05T11:59:30.673Z,6.57
2019-01-05T12:05:35.001Z,5.10
2019-01-05T12:11:59.922Z,3.73
2019-01-05T12:17:52.080Z,5.00
2019-01-05T12:23:43.930Z,3.57
2019-01-05T12:29:58.100Z,5.67
2019-01-05T12:36:06.048Z,4.27
2019-01-05T12:42:08.528Z,3.10
2019-01-05T12:48:21.782Z,4.70
2019-01-05T12:54:20.271Z,3.50
2019-01-05T13:00:19.505Z,3.43
2019-01-05T13:06:16.996Z,3.30
2019-01-05T13:12:01.571Z,3.70
2019-01-05T13:18:16.876Z,3.03
2019-01-05T13:24:15.372Z,4.33
2019-01-05T13:30:09.862Z,3.13
2019-01-05T13:36:25.597Z,5.43
2019-01-05T13:42:19.559Z,4.70
2019-01-05T13:48:03.561Z,2.93
2019-01-05T13:54:25.632Z,4.07
2019-01-05T13:59:59.994Z,2.93
2019-01-05T14:05:20.915Z,3.33
2019-01-05T14:10:54.417Z,2.70
2019-01-05T14:16:12.981Z,2.50
2019-01-05T14:21:29.096Z,3.53
2019-01-05T14:26:50.136Z,2.83
2019-01-05T14:32:25.164Z,3.70
2019-01-05T14:37:45.596Z,3.50
2019-01-05T14:43:06.824Z,3.00
2019-01-05T14:48:47.116Z,3.30
2019-01-05T14:54:07.545Z,3.17
2019-01-05T14:59:31.315Z,4.10
2019-01-05T15:04:53.670Z,3.23
2019-01-05T15:10:21.859Z,3.70
2019-01-05T15:15:52.478Z,4.23
2019-01-05T15:21:14.899Z,3.97
2019-01-05T15:26:48.515Z,3.77
2019-01-05T15:32:08.897Z,4.60
2019-01-05T15:37:42.637Z,4.10
2019-01-05T15:43:10.953Z,6.00
2019-01-05T15:48:45.289Z,5.57
2019-01-05T15:54:05.835Z,4.00
2019-01-05T15:59:31.023Z,4.80
2019-01-05T16:04:59.009Z,4.90
2019-01-05T16:10:27.660Z,4.63
2019-01-05T16:16:05.347Z,4.23
2019-01-05T16:21:25.961Z,5.40
2019-01-05T16:26:51.517Z,4.20
2019-01-05T16:32:32.284Z,4.67
2019-01-05T16:38:00.680Z,3.27
2019-01-05T16:43:35.239Z,2.93
2019-01-05T16:48:56.366Z,3.70
2019-01-05T16:54:17.294Z,2.83
2019-01-05T16:59:33.296Z,3.23
2019-01-05T17:04:55.094Z,3.60
2019-01-05T17:10:17.540Z,3.13
2019-01-05T17:15:51.568Z,2.90
2019-01-05T17:21:09.593Z,3.57
2019-01-05T17:26:29.743Z,2.77
2019-01-05T17:31:53.162Z,2.40
2019-01-05T17:37:18.215Z,3.23
2019-01-05T17:42:33.396Z,2.90
2019-01-05T17:47:54.362Z,2.70
2019-01-05T17:53:21.670Z,3.27
2019-01-05T17:58:47.055Z,4.10
2019-01-05T18:04:04.079Z,3.20
2019-01-05T18:09:26.663Z,4.13
2019-01-05T18:14:50.344Z,2.90
2019-01-05T18:20:06.275Z,3.50
2019-01-05T18:25:28.391Z,2.23
2019-01-05T18:30:48.906Z,1.90
2019-01-05T18:36:23.129Z,1.93
2019-01-05T18:42:00.493Z,1.83
2019-01-05T18:47:21.916Z,2.50
2019-01-05T18:52:59.201Z,2.67
2019-01-05T18:58:20.464Z,2.90
2019-01-05T19:03:35.327Z,2.23
2019-01-05T19:08:56.035Z,2.30
2019-01-05T19:14:20.774Z,3.80
2019-01-05T19:19:54.977Z,3.93
2019-01-05T19:25:23.407Z,4.40
2019-01-05T19:30:48.137Z,4.13
2019-01-05T19:36:22.504Z,4.00
2019-01-05T19:41:44.032Z,5.57
2019-01-05T19:47:05.540Z,5.50
2019-01-05T19:52:42.822Z,4.60
2019-01-05T19:58:04.065Z,4.33
2019-01-05T20:03:25.220Z,4.27
2019-01-05T20:08:46.332Z,11.57
2019-01-05T20:14:20.284Z,10.80
2019-01-05T20:19:42.464Z,8.57
2019-01-05T20:25:19.626Z,8.77
2019-01-05T20:30:41.671Z,8.70
2019-01-05T20:36:09.694Z,9.70
2019-01-05T20:41:30.898Z,13.97
2019-01-05T20:46:56.340Z,6.00
2019-01-05T20:52:19.836Z,14.17
2019-01-05T20:57:47.501Z,10.97
2019-01-05T21:03:24.977Z,11.03
2019-01-05T21:08:39.778Z,10.33
2019-01-05T21:14:01.220Z,16.87
2019-01-05T21:19:27.019Z,12.80
2019-01-05T21:24:48.408Z,9.57
2019-01-05T21:30:23.043Z,10.50
2019-01-05T21:35:45.614Z,11.77
2019-01-05T21:41:06.591Z,11.80
2019-01-05T21:46:33.513Z,11.00
2019-01-05T21:52:10.919Z,48.63
2019-01-05T21:57:33.584Z,44.50
2019-01-05T22:02:50.797Z,24.47
2019-01-05T22:08:12.965Z,19.33
2019-01-05T22:13:32.477Z,21.73
2019-01-05T22:19:00.655Z,20.90
2019-01-05T22:24:24.914Z,18.80
2019-01-05T22:29:44.511Z,16.50
2019-01-05T22:35:07.576Z,18.13
2019-01-05T22:40:40.117Z,38.90
2019-01-05T22:46:17.742Z,41.20
2019-01-05T22:51:38.560Z,26.97
2019-01-05T22:57:03.242Z,22.53
2019-01-05T23:02:24.203Z,18.40
2019-01-05T23:07:45.023Z,16.67
2019-01-05T23:13:08.709Z,17.00
2019-01-05T23:18:29.169Z,19.40
2019-01-05T23:23:58.869Z,20.03
2019-01-05T23:29:33.213Z,31.13
2019-01-05T23:34:49.719Z,17.30
2019-01-05T23:40:18.031Z,12.80
2019-01-05T23:45:43.035Z,14.97
2019-01-05T23:51:14.990Z,11.20
2019-01-05T23:56:42.819Z,11.60
